createdAt,value
2023-04-16T00:00:57.489Z,960.07
2023-04-16T00:01:57.581Z,960.08
2023-04-16T00:02:57.531Z,960.09
2023-04-16T00:03:57.648Z,960.09
2023-04-16T00:04:57.395Z,960.06
2023-04-16T00:05:57.332Z,960.04
2023-04-16T00:06:57.305Z,960.04
2023-04-16T00:07:57.277Z,960.11
2023-04-16T00:08:57.245Z,960.10
2023-04-16T00:09:57.213Z,960.08
2023-04-16T00:10:57.187Z,960.02
2023-04-16T00:11:57.166Z,960.11
2023-04-16T00:12:57.127Z,960.11
2023-04-16T00:13:57.098Z,960.11
2023-04-16T00:14:57.083Z,960.08
2023-04-16T00:15:57.038Z,960.09
2023-04-16T00:16:57.031Z,960.07
2023-04-16T00:17:57.023Z,960.07
2023-04-16T00:18:56.962Z,960.07
2023-04-16T00:19:56.924Z,960.10
2023-04-16T00:20:56.917Z,960.10
2023-04-16T00:21:56.860Z,960.10
2023-04-16T00:22:56.830Z,960.12
2023-04-16T00:23:56.804Z,960.08
2023-04-16T00:24:56.773Z,960.07
2023-04-16T00:25:56.741Z,960.10
2023-04-16T00:26:56.718Z,960.05
2023-04-16T00:27:56.684Z,960.06
2023-04-16T00:28:56.656Z,960.06
2023-04-16T00:29:56.626Z,960.09
2023-04-16T00:30:56.670Z,960.05
2023-04-16T00:31:56.572Z,960.08
2023-04-16T00:32:56.596Z,960.08
2023-04-16T00:33:56.508Z,960.06
2023-04-16T00:34:56.477Z,960.09
2023-04-16T00:35:56.446Z,960.14
2023-04-16T00:36:56.442Z,960.12
2023-04-16T00:37:56.395Z,960.12
2023-04-16T00:38:56.364Z,960.12
2023-04-16T00:39:56.332Z,960.12
2023-04-16T00:40:56.299Z,960.12
2023-04-16T00:41:56.268Z,960.10
2023-04-16T00:42:56.241Z,960.13
2023-04-16T00:43:56.208Z,960.12
2023-04-16T00:44:56.186Z,960.10
2023-04-16T00:45:56.244Z,960.09
2023-04-16T00:46:56.139Z,960.11
2023-04-16T00:47:56.116Z,960.12
2023-04-16T00:48:56.067Z,960.09
2023-04-16T00:49:56.032Z,960.14
2023-04-16T00:50:56.007Z,960.13
2023-04-16T00:51:55.973Z,960.11
2023-04-16T00:52:55.963Z,960.12
2023-04-16T00:53:55.913Z,960.13
2023-04-16T00:54:55.899Z,960.11
2023-04-16T00:55:55.853Z,960.14
2023-04-16T00:56:55.827Z,960.11
2023-04-16T00:57:55.791Z,960.09
2023-04-16T00:58:55.765Z,960.10
2023-04-16T00:59:55.744Z,960.12
2023-04-16T01:00:55.706Z,960.10
2023-04-16T01:01:55.754Z,960.10
2023-04-16T01:02:55.895Z,960.13
2023-04-16T01:03:55.706Z,960.16
2023-04-16T01:04:55.588Z,960.14
2023-04-16T01:05:55.563Z,960.13
2023-04-16T01:06:55.529Z,960.12
2023-04-16T01:07:55.504Z,960.14
2023-04-16T01:08:55.501Z,960.11
2023-04-16T01:09:55.442Z,960.16
2023-04-16T01:10:55.422Z,960.13
2023-04-16T01:11:55.383Z,960.12
2023-04-16T01:12:55.354Z,960.15
2023-04-16T01:13:55.324Z,960.10
2023-04-16T01:14:55.293Z,960.16
2023-04-16T01:15:55.277Z,960.12
2023-04-16T01:16:55.240Z,960.17
2023-04-16T01:17:55.245Z,960.17
2023-04-16T01:18:55.178Z,960.15
2023-04-16T01:19:55.145Z,960.18
2023-04-16T01:20:55.117Z,960.20
2023-04-16T01:21:55.097Z,960.18
2023-04-16T01:22:55.058Z,960.19
2023-04-16T01:23:55.031Z,960.16
2023-04-16T01:24:55.021Z,960.14
2023-04-16T01:25:54.972Z,960.14
2023-04-16T01:26:54.943Z,960.13
2023-04-16T01:27:54.921Z,960.19
2023-04-16T01:28:54.880Z,960.12
2023-04-16T01:29:54.848Z,960.14
2023-04-16T01:30:54.821Z,960.14
2023-04-16T01:31:54.794Z,960.14
2023-04-16T01:32:54.796Z,960.18
2023-04-16T01:33:54.733Z,960.16
2023-04-16T01:34:54.710Z,960.19
2023-04-16T01:35:54.677Z,960.18
2023-04-16T01:36:54.642Z,960.22
2023-04-16T01:37:54.622Z,960.24
2023-04-16T01:38:54.584Z,960.24
2023-04-16T01:39:54.555Z,960.24
2023-04-16T01:40:54.549Z,960.23
2023-04-16T01:41:54.496Z,960.21
2023-04-16T01:42:54.463Z,960.23
2023-04-16T01:43:54.435Z,960.25
2023-04-16T01:44:54.406Z,960.25
2023-04-16T01:45:54.374Z,960.28
2023-04-16T01:46:54.390Z,960.26
2023-04-16T01:47:54.332Z,960.22
2023-04-16T01:48:54.289Z,960.23
2023-04-16T01:49:54.269Z,960.27
2023-04-16T01:50:54.227Z,960.24
2023-04-16T01:51:54.198Z,960.24
2023-04-16T01:52:54.168Z,960.26
2023-04-16T01:53:54.145Z,960.27
2023-04-16T01:54:54.109Z,960.30
2023-04-16T01:55:54.082Z,960.31
2023-04-16T01:56:54.069Z,960.28
2023-04-16T01:57:54.033Z,960.29
2023-04-16T01:58:54.007Z,960.32
2023-04-16T01:59:53.959Z,960.31
2023-04-16T02:00:53.970Z,960.31
2023-04-16T02:01:53.972Z,960.33
2023-04-16T02:02:54.157Z,960.33
2023-04-16T02:03:53.990Z,960.35
2023-04-16T02:04:53.816Z,960.36
2023-04-16T02:05:53.782Z,960.40
2023-04-16T02:06:53.755Z,960.37
2023-04-16T02:07:53.735Z,960.37
2023-04-16T02:08:53.691Z,960.36
2023-04-16T02:09:53.663Z,960.42
2023-04-16T02:10:53.640Z,960.38
2023-04-16T02:11:53.620Z,960.39
2023-04-16T02:12:53.600Z,960.36
2023-04-16T02:13:53.541Z,960.39
2023-04-16T02:14:53.514Z,960.39
2023-04-16T02:15:53.481Z,960.41
2023-04-16T02:16:53.548Z,960.38
2023-04-16T02:17:53.473Z,960.42
2023-04-16T02:18:53.396Z,960.41
2023-04-16T02:19:53.362Z,960.39
2023-04-16T02:20:53.336Z,960.41
2023-04-16T02:21:53.300Z,960.43
2023-04-16T02:22:53.274Z,960.42
2023-04-16T02:23:53.245Z,960.42
2023-04-16T02:24:53.219Z,960.43
2023-04-16T02:25:53.189Z,960.46
2023-04-16T02:26:53.156Z,960.42
2023-04-16T02:27:53.133Z,960.44
2023-04-16T02:28:53.118Z,960.44
2023-04-16T02:29:53.068Z,960.41
2023-04-16T02:30:53.049Z,960.42
2023-04-16T02:31:53.055Z,960.48
2023-04-16T02:32:53.008Z,960.45
2023-04-16T02:33:52.950Z,960.45
2023-04-16T02:34:52.917Z,960.45
2023-04-16T02:35:52.892Z,960.46
2023-04-16T02:36:52.859Z,960.49
2023-04-16T02:37:52.828Z,960.46
2023-04-16T02:38:52.801Z,960.50
2023-04-16T02:39:52.791Z,960.47
2023-04-16T02:40:52.741Z,960.47
2023-04-16T02:41:52.710Z,960.47
2023-04-16T02:42:52.683Z,960.49
2023-04-16T02:43:52.651Z,960.45
2023-04-16T02:44:52.642Z,960.45
2023-04-16T02:45:52.646Z,960.45
2023-04-16T02:46:52.564Z,960.46
2023-04-16T02:47:52.603Z,960.49
2023-04-16T02:48:52.506Z,960.49
2023-04-16T02:49:52.475Z,960.46
2023-04-16T02:50:52.465Z,960.44
2023-04-16T02:51:52.418Z,960.45
2023-04-16T02:52:52.387Z,960.47
2023-04-16T02:53:52.361Z,960.44
2023-04-16T02:54:52.329Z,960.44
2023-04-16T02:55:52.307Z,960.47
2023-04-16T02:56:52.276Z,960.45
2023-04-16T02:57:52.251Z,960.44
2023-04-16T02:58:52.213Z,960.44
2023-04-16T02:59:52.194Z,960.47
2023-04-16T03:00:52.173Z,960.42
2023-04-16T03:01:52.297Z,960.46
2023-04-16T03:02:52.163Z,960.41
2023-04-16T03:03:52.101Z,960.42
2023-04-16T03:04:52.056Z,960.41
2023-04-16T03:05:52.027Z,960.41
2023-04-16T03:06:51.978Z,960.43
2023-04-16T03:07:51.945Z,960.44
2023-04-16T03:08:51.917Z,960.43
2023-04-16T03:09:51.892Z,960.42
2023-04-16T03:10:51.860Z,960.43
2023-04-16T03:11:51.830Z,960.43
2023-04-16T03:12:51.840Z,960.41
2023-04-16T03:13:51.770Z,960.43
2023-04-16T03:14:51.750Z,960.45
2023-04-16T03:15:51.758Z,960.42
2023-04-16T03:16:51.701Z,960.47
2023-04-16T03:17:51.673Z,960.47
2023-04-16T03:18:51.623Z,960.45
2023-04-16T03:19:51.593Z,960.44
2023-04-16T03:20:51.564Z,960.46
2023-04-16T03:21:51.536Z,960.47
2023-04-16T03:22:51.509Z,960.42
2023-04-16T03:23:51.475Z,960.43
2023-04-16T03:24:51.465Z,960.44
2023-04-16T03:25:51.426Z,960.47
2023-04-16T03:26:51.388Z,960.45
2023-04-16T03:27:51.359Z,960.47
2023-04-16T03:28:51.332Z,960.46
2023-04-16T03:29:51.300Z,960.45
2023-04-16T03:30:51.286Z,960.49
2023-04-16T03:31:51.240Z,960.49
2023-04-16T03:32:51.391Z,960.50
2023-04-16T03:33:51.178Z,960.54
2023-04-16T03:34:51.152Z,960.53
2023-04-16T03:35:51.122Z,960.49
2023-04-16T03:36:51.092Z,960.53
2023-04-16T03:37:51.066Z,960.59
2023-04-16T03:38:51.034Z,960.53
2023-04-16T03:39:51.003Z,960.60
2023-04-16T03:40:50.977Z,960.57
2023-04-16T03:41:50.945Z,960.55
2023-04-16T03:42:50.915Z,960.58
2023-04-16T03:43:50.892Z,960.60
2023-04-16T03:44:50.860Z,960.63
2023-04-16T03:45:50.827Z,960.62
2023-04-16T03:46:50.896Z,960.61
2023-04-16T03:47:50.813Z,960.59
2023-04-16T03:48:50.751Z,960.61
2023-04-16T03:49:50.707Z,960.61
2023-04-16T03:50:50.695Z,960.58
2023-04-16T03:51:50.646Z,960.61
2023-04-16T03:52:50.619Z,960.56
2023-04-16T03:53:50.591Z,960.64
2023-04-16T03:54:50.559Z,960.62
2023-04-16T03:55:50.531Z,960.62
2023-04-16T03:56:50.501Z,960.59
2023-04-16T03:57:50.469Z,960.65
2023-04-16T03:58:50.446Z,960.62
2023-04-16T03:59:50.409Z,960.64
2023-04-16T04:00:50.380Z,960.65
2023-04-16T04:01:50.399Z,960.66
2023-04-16T04:02:50.485Z,960.64
2023-04-16T04:03:50.541Z,960.65
2023-04-16T04:04:50.328Z,960.66
2023-04-16T04:05:50.236Z,960.64
2023-04-16T04:06:50.208Z,960.65
2023-04-16T04:07:50.171Z,960.64
2023-04-16T04:08:50.143Z,960.63
2023-04-16T04:09:50.114Z,960.64
2023-04-16T04:10:50.084Z,960.61
2023-04-16T04:11:50.056Z,960.62
2023-04-16T04:12:50.027Z,960.62
2023-04-16T04:13:49.994Z,960.63
2023-04-16T04:14:49.970Z,960.60
2023-04-16T04:15:49.982Z,960.63
2023-04-16T04:16:49.900Z,960.59
2023-04-16T04:17:49.886Z,960.60
2023-04-16T04:18:49.845Z,960.62
2023-04-16T04:20:00.470Z,960.61
2023-04-16T04:20:49.805Z,960.59
2023-04-16T04:21:49.761Z,960.62
2023-04-16T04:22:49.732Z,960.61
2023-04-16T04:23:49.698Z,960.60
2023-04-16T04:24:49.671Z,960.62
2023-04-16T04:25:49.664Z,960.63
2023-04-16T04:26:49.605Z,960.63
2023-04-16T04:27:49.575Z,960.63
2023-04-16T04:28:49.547Z,960.63
2023-04-16T04:29:49.515Z,960.68
2023-04-16T04:30:49.500Z,960.63
2023-04-16T04:31:49.468Z,960.68
2023-04-16T04:32:49.455Z,960.68
2023-04-16T04:33:49.399Z,960.67
2023-04-16T04:34:49.373Z,960.69
2023-04-16T04:35:49.353Z,960.69
2023-04-16T04:36:49.339Z,960.76
2023-04-16T04:37:49.278Z,960.73
2023-04-16T04:38:49.266Z,960.76
2023-04-16T04:39:49.220Z,960.72
2023-04-16T04:40:49.192Z,960.73
2023-04-16T04:41:49.164Z,960.74
2023-04-16T04:42:49.134Z,960.76
2023-04-16T04:43:49.118Z,960.77
2023-04-16T04:44:49.077Z,960.76
2023-04-16T04:45:49.156Z,960.76
2023-04-16T04:46:49.013Z,960.80
2023-04-16T04:47:49.025Z,960.83
2023-04-16T04:48:48.949Z,960.81
2023-04-16T04:49:48.917Z,960.79
2023-04-16T04:50:48.903Z,960.83
2023-04-16T04:51:48.858Z,960.79
2023-04-16T04:52:48.848Z,960.82
2023-04-16T04:53:48.802Z,960.84
2023-04-16T04:54:48.789Z,960.82
2023-04-16T04:55:52.272Z,960.85
2023-04-16T04:56:48.710Z,960.85
2023-04-16T04:57:48.681Z,960.87
2023-04-16T04:58:48.649Z,960.85
2023-04-16T04:59:48.619Z,960.85
2023-04-16T05:00:48.616Z,960.88
2023-04-16T05:01:48.610Z,960.91
2023-04-16T05:02:48.623Z,960.90
2023-04-16T05:03:48.549Z,960.90
2023-04-16T05:04:48.529Z,960.92
2023-04-16T05:05:48.446Z,960.90
2023-04-16T05:06:48.410Z,960.94
2023-04-16T05:07:48.384Z,960.94
2023-04-16T05:08:48.381Z,960.93
2023-04-16T05:09:48.325Z,960.95
2023-04-16T05:10:48.299Z,960.93
2023-04-16T05:11:48.264Z,960.93
2023-04-16T05:12:49.039Z,960.97
2023-04-16T05:13:48.206Z,960.94
2023-04-16T05:14:48.175Z,960.95
2023-04-16T05:15:48.159Z,960.96
2023-04-16T05:16:48.142Z,960.94
2023-04-16T05:17:48.104Z,960.96
2023-04-16T05:18:48.055Z,960.98
2023-04-16T05:19:48.028Z,961.01
2023-04-16T05:20:48.008Z,961.03
2023-04-16T05:21:47.964Z,961.02
2023-04-16T05:22:47.938Z,961.04
2023-04-16T05:23:47.908Z,961.06
2023-04-16T05:24:47.911Z,961.04
2023-04-16T05:25:47.855Z,961.03
2023-04-16T05:26:47.819Z,961.04
2023-04-16T05:27:47.796Z,961.04
2023-04-16T05:28:47.760Z,961.07
2023-04-16T05:29:47.732Z,961.08
2023-04-16T05:30:47.752Z,961.06
2023-04-16T05:31:47.677Z,961.07
2023-04-16T05:32:47.721Z,961.05
2023-04-16T05:33:47.621Z,961.09
2023-04-16T05:34:47.578Z,961.07
2023-04-16T05:35:47.552Z,961.11
2023-04-16T05:36:47.521Z,961.09
2023-04-16T05:37:47.491Z,961.11
2023-04-16T05:38:47.461Z,961.10
2023-04-16T05:39:47.429Z,961.11
2023-04-16T05:40:47.428Z,961.13
2023-04-16T05:41:47.369Z,961.14
2023-04-16T05:42:47.341Z,961.14
2023-04-16T05:43:47.311Z,961.18
2023-04-16T05:44:47.278Z,961.13
2023-04-16T05:45:47.255Z,961.14
2023-04-16T05:46:47.221Z,961.12
2023-04-16T05:47:47.304Z,961.15
2023-04-16T05:48:47.163Z,961.12
2023-04-16T05:49:47.128Z,961.18
2023-04-16T05:50:47.102Z,961.16
2023-04-16T05:51:47.400Z,961.16
2023-04-16T05:52:47.041Z,961.19
2023-04-16T05:53:47.013Z,961.23
2023-04-16T05:54:46.985Z,961.23
2023-04-16T05:55:46.959Z,961.20
2023-04-16T05:56:46.950Z,961.25
2023-04-16T05:57:46.912Z,961.27
2023-04-16T05:58:46.865Z,961.27
2023-04-16T05:59:46.837Z,961.29
2023-04-16T06:00:46.807Z,961.28
2023-04-16T06:01:46.780Z,961.31
2023-04-16T06:02:46.852Z,961.32
2023-04-16T06:03:46.779Z,961.33
2023-04-16T06:04:46.695Z,961.31
2023-04-16T06:05:46.689Z,961.34
2023-04-16T06:06:46.642Z,961.34
2023-04-16T06:07:46.597Z,961.38
2023-04-16T06:08:46.573Z,961.34
2023-04-16T06:09:46.542Z,961.37
2023-04-16T06:10:46.511Z,961.41
2023-04-16T06:11:46.480Z,961.39
2023-04-16T06:12:46.473Z,961.38
2023-04-16T06:13:46.423Z,961.40
2023-04-16T06:14:46.394Z,961.35
2023-04-16T06:15:46.401Z,961.37
2023-04-16T06:16:46.335Z,961.38
2023-04-16T06:17:46.350Z,961.40
2023-04-16T06:18:46.271Z,961.36
2023-04-16T06:19:46.256Z,961.42
2023-04-16T06:20:46.221Z,961.42
2023-04-16T06:21:46.200Z,961.43
2023-04-16T06:22:46.152Z,961.47
2023-04-16T06:23:46.183Z,961.44
2023-04-16T06:24:46.092Z,961.43
2023-04-16T06:25:46.064Z,961.44
2023-04-16T06:26:46.041Z,961.45
2023-04-16T06:27:46.017Z,961.46
2023-04-16T06:28:45.990Z,961.46
2023-04-16T06:29:45.952Z,961.47
2023-04-16T06:30:45.922Z,961.49
2023-04-16T06:31:45.913Z,961.52
2023-04-16T06:32:45.891Z,961.52
2023-04-16T06:33:45.825Z,961.52
2023-04-16T06:34:45.793Z,961.52
2023-04-16T06:35:45.766Z,961.51
2023-04-16T06:36:45.738Z,961.52
2023-04-16T06:37:45.706Z,961.54
2023-04-16T06:38:45.681Z,961.54
2023-04-16T06:39:45.650Z,961.52
2023-04-16T06:40:45.616Z,961.55
2023-04-16T06:41:45.589Z,961.54
2023-04-16T06:42:45.831Z,961.57
2023-04-16T06:43:45.524Z,961.56
2023-04-16T06:44:45.515Z,961.58
2023-04-16T06:45:45.470Z,961.56
2023-04-16T06:46:45.468Z,961.58
2023-04-16T06:47:45.431Z,961.57
2023-04-16T06:48:45.387Z,961.60
2023-04-16T06:49:45.349Z,961.59
2023-04-16T06:50:45.320Z,961.61
2023-04-16T06:51:45.288Z,961.62
2023-04-16T06:52:45.267Z,961.66
2023-04-16T06:53:45.249Z,961.68
2023-04-16T06:54:45.198Z,961.69
2023-04-16T06:55:45.183Z,961.67
2023-04-16T06:56:45.135Z,961.68
2023-04-16T06:57:45.110Z,961.69
2023-04-16T06:58:45.084Z,961.71
2023-04-16T06:59:45.048Z,961.71
2023-04-16T07:00:45.074Z,961.70
2023-04-16T07:01:45.041Z,961.73
2023-04-16T07:02:45.023Z,961.73
2023-04-16T07:03:45.092Z,961.75
2023-04-16T07:04:44.902Z,961.74
2023-04-16T07:05:44.883Z,961.74
2023-04-16T07:06:44.859Z,961.74
2023-04-16T07:07:44.823Z,961.76
2023-04-16T07:08:44.783Z,961.74
2023-04-16T07:09:44.762Z,961.70
2023-04-16T07:10:44.742Z,961.69
2023-04-16T07:11:44.703Z,961.72
2023-04-16T07:12:44.674Z,961.71
2023-04-16T07:13:44.656Z,961.74
2023-04-16T07:14:44.606Z,961.73
2023-04-16T07:15:44.578Z,961.77
2023-04-16T07:16:44.622Z,961.74
2023-04-16T07:17:44.603Z,961.70
2023-04-16T07:18:44.492Z,961.73
2023-04-16T07:19:44.464Z,961.77
2023-04-16T07:20:44.431Z,961.70
2023-04-16T07:21:44.428Z,961.74
2023-04-16T07:22:44.375Z,961.77
2023-04-16T07:23:44.345Z,961.75
2023-04-16T07:24:44.317Z,961.75
2023-04-16T07:25:44.635Z,961.75
2023-04-16T07:26:44.258Z,961.78
2023-04-16T07:27:44.228Z,961.78
2023-04-16T07:28:44.201Z,961.79
2023-04-16T07:29:44.168Z,961.81
2023-04-16T07:30:44.141Z,961.80
2023-04-16T07:31:44.142Z,961.79
2023-04-16T07:32:44.124Z,961.83
2023-04-16T07:33:44.068Z,961.82
2023-04-16T07:34:44.024Z,961.82
2023-04-16T07:35:43.995Z,961.83
2023-04-16T07:36:43.965Z,961.84
2023-04-16T07:37:43.941Z,961.83
2023-04-16T07:38:43.908Z,961.85
2023-04-16T07:39:43.876Z,961.85
2023-04-16T07:40:43.853Z,961.88
2023-04-16T07:41:43.825Z,961.89
2023-04-16T07:42:43.788Z,961.90
2023-04-16T07:43:43.761Z,961.88
2023-04-16T07:44:43.732Z,961.89
2023-04-16T07:45:43.722Z,961.90
2023-04-16T07:46:47.380Z,961.88
2023-04-16T07:47:43.683Z,961.89
2023-04-16T07:48:43.642Z,961.91
2023-04-16T07:49:43.592Z,961.92
2023-04-16T07:50:43.620Z,961.95
2023-04-16T07:51:43.568Z,961.94
2023-04-16T07:52:43.498Z,961.97
2023-04-16T07:53:43.512Z,961.99
2023-04-16T07:54:43.448Z,962.01
2023-04-16T07:55:43.411Z,961.98
2023-04-16T07:56:43.385Z,962.02
2023-04-16T07:57:43.368Z,962.00
2023-04-16T07:58:43.346Z,962.04
2023-04-16T07:59:43.295Z,962.03
2023-04-16T08:00:43.267Z,962.05
2023-04-16T08:01:43.238Z,962.05
2023-04-16T08:02:43.345Z,962.03
2023-04-16T08:03:43.451Z,962.05
2023-04-16T08:04:43.355Z,962.06
2023-04-16T08:05:43.122Z,962.10
2023-04-16T08:06:43.094Z,962.09
2023-04-16T08:07:43.078Z,962.09
2023-04-16T08:08:43.035Z,962.08
2023-04-16T08:09:43.007Z,962.09
2023-04-16T08:10:42.976Z,962.09
2023-04-16T08:11:42.949Z,962.08
2023-04-16T08:12:42.921Z,962.14
2023-04-16T08:13:42.894Z,962.13
2023-04-16T08:14:42.875Z,962.14
2023-04-16T08:15:42.959Z,962.16
2023-04-16T08:16:42.805Z,962.17
2023-04-16T08:17:42.827Z,962.19
2023-04-16T08:18:42.755Z,962.18
2023-04-16T08:19:42.717Z,962.18
2023-04-16T08:20:42.709Z,962.22
2023-04-16T08:21:42.666Z,962.23
2023-04-16T08:22:42.636Z,962.25
2023-04-16T08:23:42.604Z,962.24
2023-04-16T08:24:42.572Z,962.27
2023-04-16T08:25:42.544Z,962.25
2023-04-16T08:26:42.525Z,962.26
2023-04-16T08:27:42.501Z,962.28
2023-04-16T08:28:42.461Z,962.29
2023-04-16T08:29:42.431Z,962.27
2023-04-16T08:30:42.404Z,962.28
2023-04-16T08:31:42.380Z,962.29
2023-04-16T08:32:42.399Z,962.30
2023-04-16T08:33:42.322Z,962.31
2023-04-16T08:34:42.313Z,962.33
2023-04-16T08:35:42.260Z,962.31
2023-04-16T08:36:42.246Z,962.34
2023-04-16T08:37:42.201Z,962.36
2023-04-16T08:38:42.170Z,962.32
2023-04-16T08:39:42.143Z,962.32
2023-04-16T08:40:42.115Z,962.40
2023-04-16T08:41:42.083Z,962.36
2023-04-16T08:42:42.069Z,962.36
2023-04-16T08:43:42.028Z,962.39
2023-04-16T08:44:42.023Z,962.39
2023-04-16T08:45:41.970Z,962.35
2023-04-16T08:46:42.006Z,962.41
2023-04-16T08:47:41.944Z,962.41
2023-04-16T08:48:41.887Z,962.38
2023-04-16T08:49:41.857Z,962.37
2023-04-16T08:50:41.827Z,962.42
2023-04-16T08:51:41.794Z,962.40
2023-04-16T08:52:41.792Z,962.40
2023-04-16T08:53:41.740Z,962.40
2023-04-16T08:54:41.712Z,962.41
2023-04-16T08:55:41.689Z,962.47
2023-04-16T08:56:42.957Z,962.44
2023-04-16T08:57:41.626Z,962.43
2023-04-16T08:58:41.597Z,962.47
2023-04-16T08:59:41.576Z,962.46
2023-04-16T09:00:41.542Z,962.50
2023-04-16T09:01:41.565Z,962.47
2023-04-16T09:02:41.609Z,962.49
2023-04-16T09:03:41.687Z,962.48
2023-04-16T09:04:41.607Z,962.47
2023-04-16T09:05:41.395Z,962.51
2023-04-16T09:06:41.412Z,962.51
2023-04-16T09:07:41.344Z,962.52
2023-04-16T09:08:41.329Z,962.51
2023-04-16T09:09:41.284Z,962.52
2023-04-16T09:10:41.254Z,962.51
2023-04-16T09:11:41.230Z,962.52
2023-04-16T09:12:41.203Z,962.57
2023-04-16T09:13:41.164Z,962.58
2023-04-16T09:14:41.144Z,962.57
2023-04-16T09:15:41.118Z,962.58
2023-04-16T09:16:41.196Z,962.59
2023-04-16T09:17:41.134Z,962.59
2023-04-16T09:18:41.030Z,962.61
2023-04-16T09:19:41.008Z,962.63
2023-04-16T09:20:40.989Z,962.60
2023-04-16T09:21:40.943Z,962.61
2023-04-16T09:22:40.923Z,962.64
2023-04-16T09:23:40.888Z,962.61
2023-04-16T09:24:40.876Z,962.64
2023-04-16T09:25:40.838Z,962.61
2023-04-16T09:26:40.798Z,962.63
2023-04-16T09:27:40.773Z,962.65
2023-04-16T09:28:40.748Z,962.67
2023-04-16T09:29:40.715Z,962.66
2023-04-16T09:30:40.687Z,962.67
2023-04-16T09:31:40.684Z,962.66
2023-04-16T09:32:40.646Z,962.67
2023-04-16T09:33:40.602Z,962.67
2023-04-16T09:34:40.574Z,962.66
2023-04-16T09:35:40.559Z,962.71
2023-04-16T09:36:40.518Z,962.67
2023-04-16T09:37:40.491Z,962.71
2023-04-16T09:38:40.468Z,962.70
2023-04-16T09:39:40.433Z,962.69
2023-04-16T09:40:40.436Z,962.70
2023-04-16T09:41:40.374Z,962.72
2023-04-16T09:42:40.349Z,962.73
2023-04-16T09:43:40.319Z,962.74
2023-04-16T09:44:40.293Z,962.77
2023-04-16T09:45:40.269Z,962.76
2023-04-16T09:46:40.237Z,962.81
2023-04-16T09:47:40.250Z,962.74
2023-04-16T09:48:40.179Z,962.74
2023-04-16T09:49:40.149Z,962.72
2023-04-16T09:50:40.122Z,962.75
2023-04-16T09:51:40.092Z,962.74
2023-04-16T09:52:40.070Z,962.75
2023-04-16T09:53:40.065Z,962.77
2023-04-16T09:54:40.011Z,962.79
2023-04-16T09:55:39.987Z,962.81
2023-04-16T09:56:39.984Z,962.76
2023-04-16T09:57:39.936Z,962.77
2023-04-16T09:58:39.911Z,962.81
2023-04-16T09:59:39.870Z,962.80
2023-04-16T10:00:43.371Z,962.82
2023-04-16T10:01:39.857Z,962.83
2023-04-16T10:02:39.888Z,962.82
2023-04-16T10:03:40.058Z,962.83
2023-04-16T10:04:39.746Z,962.84
2023-04-16T10:05:39.704Z,962.82
2023-04-16T10:06:39.673Z,962.85
2023-04-16T10:07:39.640Z,962.83
2023-04-16T10:08:39.615Z,962.87
2023-04-16T10:09:39.591Z,962.85
2023-04-16T10:10:39.561Z,962.86
2023-04-16T10:11:39.528Z,962.84
2023-04-16T10:12:39.523Z,962.83
2023-04-16T10:13:39.490Z,962.86
2023-04-16T10:14:39.447Z,962.87
2023-04-16T10:15:39.416Z,962.89
2023-04-16T10:16:39.408Z,962.85
2023-04-16T10:17:39.379Z,962.86
2023-04-16T10:18:39.337Z,962.89
2023-04-16T10:19:39.309Z,962.91
2023-04-16T10:20:39.274Z,962.92
2023-04-16T10:21:39.247Z,962.90
2023-04-16T10:22:39.222Z,962.90
2023-04-16T10:23:39.193Z,962.92
2023-04-16T10:24:39.160Z,962.91
2023-04-16T10:25:39.135Z,962.94
2023-04-16T10:26:39.109Z,962.91
2023-04-16T10:27:39.075Z,962.90
2023-04-16T10:28:39.081Z,962.87
2023-04-16T10:29:39.020Z,962.86
2023-04-16T10:30:39.022Z,962.89
2023-04-16T10:31:38.960Z,962.94
2023-04-16T10:32:38.973Z,962.92
2023-04-16T10:33:38.904Z,962.92
2023-04-16T10:34:38.885Z,962.94
2023-04-16T10:35:38.850Z,962.90
2023-04-16T10:36:38.818Z,962.90
2023-04-16T10:37:38.797Z,962.90
2023-04-16T10:38:38.769Z,962.90
2023-04-16T10:39:38.734Z,962.90
2023-04-16T10:40:38.706Z,962.92
2023-04-16T10:41:38.695Z,962.90
2023-04-16T10:42:38.649Z,962.95
2023-04-16T10:43:38.622Z,962.91
2023-04-16T10:44:38.613Z,962.94
2023-04-16T10:45:38.560Z,962.92
2023-04-16T10:46:38.575Z,962.85
2023-04-16T10:47:38.549Z,962.82
2023-04-16T10:48:48.722Z,962.85
2023-04-16T10:49:38.452Z,962.88
2023-04-16T10:50:38.423Z,962.91
2023-04-16T10:51:38.400Z,962.87
2023-04-16T10:52:38.390Z,962.88
2023-04-16T10:53:38.346Z,962.90
2023-04-16T10:54:38.317Z,962.85
2023-04-16T10:55:38.281Z,962.88
2023-04-16T10:56:38.292Z,962.86
2023-04-16T10:57:38.226Z,962.82
2023-04-16T10:58:38.199Z,962.89
2023-04-16T10:59:38.174Z,962.83
2023-04-16T11:00:38.163Z,962.84
2023-04-16T11:01:38.150Z,962.82
2023-04-16T11:02:38.442Z,962.88
2023-04-16T11:03:38.194Z,962.85
2023-04-16T11:04:38.209Z,962.81
2023-04-16T11:05:38.003Z,962.87
2023-04-16T11:06:37.981Z,962.84
2023-04-16T11:07:37.952Z,962.85
2023-04-16T11:08:51.138Z,962.85
2023-04-16T11:09:37.892Z,962.83
2023-04-16T11:10:37.864Z,962.84
2023-04-16T11:11:37.837Z,962.78
2023-04-16T11:12:38.367Z,962.80
2023-04-16T11:13:37.784Z,962.83
2023-04-16T11:14:37.754Z,962.81
2023-04-16T11:15:37.722Z,962.85
2023-04-16T11:16:37.719Z,962.88
2023-04-16T11:17:37.736Z,962.89
2023-04-16T11:18:37.640Z,962.85
2023-04-16T11:19:37.610Z,962.87
2023-04-16T11:20:37.599Z,962.86
2023-04-16T11:21:37.560Z,962.89
2023-04-16T11:22:37.538Z,962.86
2023-04-16T11:23:37.500Z,962.85
2023-04-16T11:24:37.473Z,962.86
2023-04-16T11:25:37.445Z,962.87
2023-04-16T11:26:37.416Z,962.84
2023-04-16T11:27:37.389Z,962.85
2023-04-16T11:28:37.361Z,962.83
2023-04-16T11:29:37.333Z,962.85
2023-04-16T11:30:37.322Z,962.83
2023-04-16T11:31:37.332Z,962.86
2023-04-16T11:32:37.300Z,962.85
2023-04-16T11:33:37.235Z,962.88
2023-04-16T11:34:37.194Z,962.86
2023-04-16T11:35:37.176Z,962.86
2023-04-16T11:36:37.139Z,962.88
2023-04-16T11:37:37.110Z,962.89
2023-04-16T11:38:37.084Z,962.88
2023-04-16T11:39:37.053Z,962.88
2023-04-16T11:40:37.046Z,962.87
2023-04-16T11:41:36.999Z,962.87
2023-04-16T11:42:37.152Z,962.89
2023-04-16T11:43:36.949Z,962.91
2023-04-16T11:44:36.917Z,962.96
2023-04-16T11:45:36.884Z,962.92
2023-04-16T11:46:36.873Z,962.94
2023-04-16T11:47:36.833Z,962.93
2023-04-16T11:48:36.826Z,962.95
2023-04-16T11:49:36.778Z,962.97
2023-04-16T11:50:36.748Z,962.96
2023-04-16T11:51:36.719Z,962.94
2023-04-16T11:52:36.690Z,963.00
2023-04-16T11:53:36.665Z,962.98
2023-04-16T11:54:36.648Z,962.97
2023-04-16T11:55:36.608Z,962.96
2023-04-16T11:56:36.583Z,962.97
2023-04-16T11:57:36.551Z,962.99
2023-04-16T11:58:36.519Z,963.03
2023-04-16T11:59:36.494Z,963.04
2023-04-16T12:00:36.465Z,963.02
2023-04-16T12:01:36.439Z,963.03
2023-04-16T12:02:36.552Z,963.05
2023-04-16T12:03:36.777Z,963.01
2023-04-16T12:04:36.522Z,963.03
2023-04-16T12:05:36.351Z,963.02
2023-04-16T12:06:36.297Z,963.01
2023-04-16T12:07:36.276Z,963.08
2023-04-16T12:08:36.254Z,963.03
2023-04-16T12:09:38.742Z,963.02
2023-04-16T12:10:36.184Z,963.05
2023-04-16T12:11:36.153Z,963.03
2023-04-16T12:12:36.128Z,963.01
2023-04-16T12:13:36.105Z,963.07
2023-04-16T12:14:36.073Z,963.05
2023-04-16T12:15:36.044Z,963.03
2023-04-16T12:16:36.137Z,963.03
2023-04-16T12:17:36.042Z,963.05
2023-04-16T12:18:35.963Z,963.05
2023-04-16T12:19:35.937Z,963.08
2023-04-16T12:20:35.922Z,963.05
2023-04-16T12:21:35.887Z,963.08
2023-04-16T12:22:36.990Z,963.10
2023-04-16T12:23:35.818Z,963.09
2023-04-16T12:24:35.786Z,963.08
2023-04-16T12:25:35.762Z,963.08
2023-04-16T12:26:35.735Z,963.10
2023-04-16T12:27:35.707Z,963.10
2023-04-16T12:28:35.680Z,963.11